sensor_id;sensor_type;location;lat;lon;timestamp;P1;durP1;ratioP1;P2;durP2;ratioP2
62071;SDS011;48031;48.542;13.232;2023-04-24T00:00:09;1.30;;;1.20;;
62071;SDS011;48031;48.542;13.232;2023-04-24T00:04:12;2.30;;;1.25;;
62071;SDS011;48031;48.542;13.232;2023-04-24T00:08:15;1.30;;;1.20;;
62071;SDS011;48031;48.542;13.232;2023-04-24T00:12:17;1.67;;;1.30;;
62071;SDS011;48031;48.542;13.232;2023-04-24T00:16:19;1.38;;;1.13;;
62071;SDS011;48031;48.542;13.232;2023-04-24T00:20:21;1.17;;;1.08;;
62071;SDS011;48031;48.542;13.232;2023-04-24T00:24:24;1.55;;;1.00;;
62071;SDS011;48031;48.542;13.232;2023-04-24T00:28:26;1.10;;;1.00;;
62071;SDS011;48031;48.542;13.232;2023-04-24T00:32:27;1.15;;;1.05;;
62071;SDS011;48031;48.542;13.232;2023-04-24T00:36:29;0.90;;;0.90;;
62071;SDS011;48031;48.542;13.232;2023-04-24T00:40:32;0.70;;;0.70;;
62071;SDS011;48031;48.542;13.232;2023-04-24T00:44:34;0.52;;;0.52;;
62071;SDS011;48031;48.542;13.232;2023-04-24T00:48:37;0.60;;;0.60;;
62071;SDS011;48031;48.542;13.232;2023-04-24T00:52:41;0.77;;;0.70;;
62071;SDS011;48031;48.542;13.232;2023-04-24T00:56:43;0.60;;;0.60;;
62071;SDS011;48031;48.542;13.232;2023-04-24T01:00:46;0.68;;;0.68;;
62071;SDS011;48031;48.542;13.232;2023-04-24T01:04:50;0.60;;;0.60;;
62071;SDS011;48031;48.542;13.232;2023-04-24T01:08:52;1.05;;;0.68;;
62071;SDS011;48031;48.542;13.232;2023-04-24T01:12:56;1.05;;;0.70;;
62071;SDS011;48031;48.542;13.232;2023-04-24T01:16:59;0.60;;;0.60;;
62071;SDS011;48031;48.542;13.232;2023-04-24T01:21:02;0.63;;;0.63;;
62071;SDS011;48031;48.542;13.232;2023-04-24T01:25:06;0.65;;;0.65;;
62071;SDS011;48031;48.542;13.232;2023-04-24T01:29:08;0.70;;;0.70;;
62071;SDS011;48031;48.542;13.232;2023-04-24T01:33:10;0.70;;;0.70;;
62071;SDS011;48031;48.542;13.232;2023-04-24T01:37:12;0.68;;;0.68;;
62071;SDS011;48031;48.542;13.232;2023-04-24T01:41:14;0.65;;;0.63;;
62071;SDS011;48031;48.542;13.232;2023-04-24T01:45:15;0.60;;;0.60;;
62071;SDS011;48031;48.542;13.232;2023-04-24T01:49:17;0.80;;;0.80;;
62071;SDS011;48031;48.542;13.232;2023-04-24T01:53:19;0.60;;;0.60;;
62071;SDS011;48031;48.542;13.232;2023-04-24T01:57:21;1.02;;;0.90;;
62071;SDS011;48031;48.542;13.232;2023-04-24T02:01:24;1.35;;;1.10;;
62071;SDS011;48031;48.542;13.232;2023-04-24T02:05:26;1.25;;;1.08;;
62071;SDS011;48031;48.542;13.232;2023-04-24T02:09:29;2.53;;;1.20;;
62071;SDS011;48031;48.542;13.232;2023-04-24T02:13:31;3.47;;;1.35;;
62071;SDS011;48031;48.542;13.232;2023-04-24T02:17:34;1.65;;;1.30;;
62071;SDS011;48031;48.542;13.232;2023-04-24T02:21:38;2.25;;;1.60;;
62071;SDS011;48031;48.542;13.232;2023-04-24T02:25:42;2.88;;;1.42;;
62071;SDS011;48031;48.542;13.232;2023-04-24T02:29:44;3.90;;;2.00;;
62071;SDS011;48031;48.542;13.232;2023-04-24T02:33:46;1.83;;;1.52;;
62071;SDS011;48031;48.542;13.232;2023-04-24T02:37:48;3.60;;;1.38;;
62071;SDS011;48031;48.542;13.232;2023-04-24T02:41:49;1.50;;;1.40;;
62071;SDS011;48031;48.542;13.232;2023-04-24T02:45:51;2.08;;;1.60;;
62071;SDS011;48031;48.542;13.232;2023-04-24T02:49:53;3.72;;;1.80;;
62071;SDS011;48031;48.542;13.232;2023-04-24T02:53:55;1.70;;;1.52;;
62071;SDS011;48031;48.542;13.232;2023-04-24T02:57:57;1.70;;;1.50;;
62071;SDS011;48031;48.542;13.232;2023-04-24T03:01:59;2.33;;;1.52;;
62071;SDS011;48031;48.542;13.232;2023-04-24T03:06:00;1.50;;;1.40;;
62071;SDS011;48031;48.542;13.232;2023-04-24T03:10:03;3.35;;;1.60;;
62071;SDS011;48031;48.542;13.232;2023-04-24T03:14:07;2.67;;;1.92;;
62071;SDS011;48031;48.542;13.232;2023-04-24T03:18:11;1.67;;;1.40;;
62071;SDS011;48031;48.542;13.232;2023-04-24T03:22:14;2.00;;;1.80;;
62071;SDS011;48031;48.542;13.232;2023-04-24T03:26:17;1.95;;;1.77;;
62071;SDS011;48031;48.542;13.232;2023-04-24T03:30:33;2.60;;;1.73;;
62071;SDS011;48031;48.542;13.232;2023-04-24T03:34:36;2.70;;;1.80;;
62071;SDS011;48031;48.542;13.232;2023-04-24T03:38:40;2.33;;;1.70;;
62071;SDS011;48031;48.542;13.232;2023-04-24T03:43:03;1.65;;;1.50;;
62071;SDS011;48031;48.542;13.232;2023-04-24T03:47:06;1.77;;;1.58;;
62071;SDS011;48031;48.542;13.232;2023-04-24T03:51:09;3.78;;;1.73;;
62071;SDS011;48031;48.542;13.232;2023-04-24T03:55:14;2.58;;;1.73;;
62071;SDS011;48031;48.542;13.232;2023-04-24T03:59:20;1.92;;;1.73;;
62071;SDS011;48031;48.542;13.232;2023-04-24T04:03:34;1.80;;;1.60;;
62071;SDS011;48031;48.542;13.232;2023-04-24T04:07:37;2.97;;;1.60;;
62071;SDS011;48031;48.542;13.232;2023-04-24T04:11:39;1.50;;;1.40;;
62071;SDS011;48031;48.542;13.232;2023-04-24T04:15:41;3.92;;;2.00;;
62071;SDS011;48031;48.542;13.232;2023-04-24T04:19:44;2.92;;;2.08;;
62071;SDS011;48031;48.542;13.232;2023-04-24T04:23:46;1.95;;;1.48;;
62071;SDS011;48031;48.542;13.232;2023-04-24T04:27:53;2.95;;;1.80;;
62071;SDS011;48031;48.542;13.232;2023-04-24T04:31:55;2.13;;;1.70;;
62071;SDS011;48031;48.542;13.232;2023-04-24T04:35:57;2.28;;;1.80;;
62071;SDS011;48031;48.542;13.232;2023-04-24T04:40:02;1.70;;;1.60;;
62071;SDS011;48031;48.542;13.232;2023-04-24T04:44:29;2.63;;;1.60;;
62071;SDS011;48031;48.542;13.232;2023-04-24T04:48:34;3.38;;;1.50;;
62071;SDS011;48031;48.542;13.232;2023-04-24T04:52:39;1.35;;;1.25;;
62071;SDS011;48031;48.542;13.232;2023-04-24T04:56:54;1.50;;;1.40;;
62071;SDS011;48031;48.542;13.232;2023-04-24T05:00:57;1.42;;;1.33;;
62071;SDS011;48031;48.542;13.232;2023-04-24T05:05:07;1.67;;;1.25;;
62071;SDS011;48031;48.542;13.232;2023-04-24T05:09:10;1.55;;;1.35;;
62071;SDS011;48031;48.542;13.232;2023-04-24T05:13:19;2.33;;;1.50;;
62071;SDS011;48031;48.542;13.232;2023-04-24T05:17:30;1.92;;;1.58;;
62071;SDS011;48031;48.542;13.232;2023-04-24T05:21:33;1.40;;;1.25;;
62071;SDS011;48031;48.542;13.232;2023-04-24T05:25:35;3.30;;;1.40;;
62071;SDS011;48031;48.542;13.232;2023-04-24T05:29:41;1.40;;;1.30;;
62071;SDS011;48031;48.542;13.232;2023-04-24T05:33:44;1.75;;;1.20;;
62071;SDS011;48031;48.542;13.232;2023-04-24T05:37:46;1.40;;;1.30;;
62071;SDS011;48031;48.542;13.232;2023-04-24T05:41:48;1.60;;;1.40;;
62071;SDS011;48031;48.542;13.232;2023-04-24T05:45:50;2.17;;;1.20;;
62071;SDS011;48031;48.542;13.232;2023-04-24T05:49:52;1.45;;;1.23;;
62071;SDS011;48031;48.542;13.232;2023-04-24T05:53:54;2.05;;;1.20;;
62071;SDS011;48031;48.542;13.232;2023-04-24T05:57:57;1.52;;;1.27;;
62071;SDS011;48031;48.542;13.232;2023-04-24T06:02:00;1.45;;;1.30;;
62071;SDS011;48031;48.542;13.232;2023-04-24T06:06:02;2.90;;;1.38;;
62071;SDS011;48031;48.542;13.232;2023-04-24T06:10:05;1.40;;;1.30;;
62071;SDS011;48031;48.542;13.232;2023-04-24T06:14:13;1.48;;;1.30;;
62071;SDS011;48031;48.542;13.232;2023-04-24T06:18:47;1.55;;;1.45;;
62071;SDS011;48031;48.542;13.232;2023-04-24T06:22:49;2.03;;;1.67;;
62071;SDS011;48031;48.542;13.232;2023-04-24T06:26:51;2.63;;;1.40;;
62071;SDS011;48031;48.542;13.232;2023-04-24T06:30:53;1.70;;;1.23;;
62071;SDS011;48031;48.542;13.232;2023-04-24T06:34:54;1.85;;;1.42;;
62071;SDS011;48031;48.542;13.232;2023-04-24T06:38:58;1.65;;;1.40;;
62071;SDS011;48031;48.542;13.232;2023-04-24T06:43:00;2.03;;;1.50;;
62071;SDS011;48031;48.542;13.232;2023-04-24T06:47:04;2.03;;;1.60;;
62071;SDS011;48031;48.542;13.232;2023-04-24T06:51:06;1.98;;;1.50;;
62071;SDS011;48031;48.542;13.232;2023-04-24T06:55:07;2.40;;;1.70;;
62071;SDS011;48031;48.542;13.232;2023-04-24T06:59:09;1.58;;;1.40;;
62071;SDS011;48031;48.542;13.232;2023-04-24T07:03:11;2.10;;;1.50;;
62071;SDS011;48031;48.542;13.232;2023-04-24T07:07:13;2.47;;;1.38;;
62071;SDS011;48031;48.542;13.232;2023-04-24T07:11:15;1.38;;;1.27;;
62071;SDS011;48031;48.542;13.232;2023-04-24T07:15:17;1.65;;;1.48;;
62071;SDS011;48031;48.542;13.232;2023-04-24T07:19:19;1.30;;;1.20;;
62071;SDS011;48031;48.542;13.232;2023-04-24T07:23:20;1.23;;;1.08;;
62071;SDS011;48031;48.542;13.232;2023-04-24T07:27:22;2.67;;;1.52;;
62071;SDS011;48031;48.542;13.232;2023-04-24T07:31:24;1.30;;;1.20;;
62071;SDS011;48031;48.542;13.232;2023-04-24T07:35:26;2.15;;;1.30;;
62071;SDS011;48031;48.542;13.232;2023-04-24T07:39:28;1.30;;;1.20;;
62071;SDS011;48031;48.542;13.232;2023-04-24T07:43:30;1.30;;;1.20;;
62071;SDS011;48031;48.542;13.232;2023-04-24T07:47:32;1.52;;;1.15;;
62071;SDS011;48031;48.542;13.232;2023-04-24T07:51:34;2.35;;;1.23;;
62071;SDS011;48031;48.542;13.232;2023-04-24T07:55:39;1.67;;;1.10;;
62071;SDS011;48031;48.542;13.232;2023-04-24T07:59:41;1.40;;;1.30;;
62071;SDS011;48031;48.542;13.232;2023-04-24T08:03:43;1.27;;;1.05;;
62071;SDS011;48031;48.542;13.232;2023-04-24T08:07:46;1.50;;;1.40;;
62071;SDS011;48031;48.542;13.232;2023-04-24T08:11:50;1.25;;;1.10;;
62071;SDS011;48031;48.542;13.232;2023-04-24T08:15:52;0.95;;;0.95;;
62071;SDS011;48031;48.542;13.232;2023-04-24T08:19:54;1.33;;;1.17;;
62071;SDS011;48031;48.542;13.232;2023-04-24T08:24:04;2.47;;;1.10;;
62071;SDS011;48031;48.542;13.232;2023-04-24T08:28:08;1.20;;;1.10;;
62071;SDS011;48031;48.542;13.232;2023-04-24T08:32:11;2.25;;;1.15;;
62071;SDS011;48031;48.542;13.232;2023-04-24T08:36:12;1.10;;;1.00;;
62071;SDS011;48031;48.542;13.232;2023-04-24T08:40:15;1.88;;;1.00;;
62071;SDS011;48031;48.542;13.232;2023-04-24T08:44:17;2.38;;;1.55;;
62071;SDS011;48031;48.542;13.232;2023-04-24T08:48:22;1.35;;;1.13;;
62071;SDS011;48031;48.542;13.232;2023-04-24T08:52:32;5.25;;;2.60;;
62071;SDS011;48031;48.542;13.232;2023-04-24T08:56:36;1.30;;;1.20;;
62071;SDS011;48031;48.542;13.232;2023-04-24T09:00:40;1.65;;;1.30;;
62071;SDS011;48031;48.542;13.232;2023-04-24T09:04:48;1.35;;;1.25;;
62071;SDS011;48031;48.542;13.232;2023-04-24T09:08:50;1.75;;;1.35;;
62071;SDS011;48031;48.542;13.232;2023-04-24T09:12:55;1.40;;;1.20;;
62071;SDS011;48031;48.542;13.232;2023-04-24T09:16:59;1.45;;;1.10;;
62071;SDS011;48031;48.542;13.232;2023-04-24T09:21:02;1.48;;;1.25;;
62071;SDS011;48031;48.542;13.232;2023-04-24T09:25:08;1.60;;;1.27;;
62071;SDS011;48031;48.542;13.232;2023-04-24T09:29:14;2.80;;;1.20;;
62071;SDS011;48031;48.542;13.232;2023-04-24T09:33:18;2.15;;;1.25;;
62071;SDS011;48031;48.542;13.232;2023-04-24T09:37:29;1.80;;;1.30;;
62071;SDS011;48031;48.542;13.232;2023-04-24T09:41:32;2.03;;;1.02;;
62071;SDS011;48031;48.542;13.232;2023-04-24T09:45:38;1.85;;;1.10;;
62071;SDS011;48031;48.542;13.232;2023-04-24T09:49:41;1.17;;;1.00;;
62071;SDS011;48031;48.542;13.232;2023-04-24T09:53:46;1.10;;;1.00;;
62071;SDS011;48031;48.542;13.232;2023-04-24T09:57:56;2.55;;;1.20;;
62071;SDS011;48031;48.542;13.232;2023-04-24T10:02:02;2.45;;;1.30;;
62071;SDS011;48031;48.542;13.232;2023-04-24T10:06:04;1.38;;;1.27;;
62071;SDS011;48031;48.542;13.232;2023-04-24T10:10:10;1.55;;;1.45;;
62071;SDS011;48031;48.542;13.232;2023-04-24T10:14:13;1.17;;;1.08;;
62071;SDS011;48031;48.542;13.232;2023-04-24T10:18:16;3.22;;;1.08;;
62071;SDS011;48031;48.542;13.232;2023-04-24T10:22:19;1.35;;;1.10;;
62071;SDS011;48031;48.542;13.232;2023-04-24T10:26:21;1.25;;;1.15;;
62071;SDS011;48031;48.542;13.232;2023-04-24T10:30:24;3.20;;;1.00;;
62071;SDS011;48031;48.542;13.232;2023-04-24T10:34:26;0.88;;;0.85;;
62071;SDS011;48031;48.542;13.232;2023-04-24T10:38:29;1.48;;;1.05;;
62071;SDS011;48031;48.542;13.232;2023-04-24T10:42:32;3.05;;;1.05;;
62071;SDS011;48031;48.542;13.232;2023-04-24T10:46:33;1.15;;;0.60;;
62071;SDS011;48031;48.542;13.232;2023-04-24T10:50:51;0.60;;;0.60;;
62071;SDS011;48031;48.542;13.232;2023-04-24T10:54:54;0.68;;;0.68;;
62071;SDS011;48031;48.542;13.232;2023-04-24T10:58:59;0.80;;;0.80;;
62071;SDS011;48031;48.542;13.232;2023-04-24T11:03:01;1.20;;;1.10;;
62071;SDS011;48031;48.542;13.232;2023-04-24T11:07:06;1.00;;;1.00;;
62071;SDS011;48031;48.542;13.232;2023-04-24T11:19:24;1.40;;;1.10;;
62071;SDS011;48031;48.542;13.232;2023-04-24T11:23:27;1.83;;;1.20;;
62071;SDS011;48031;48.542;13.232;2023-04-24T11:27:39;1.58;;;1.48;;
62071;SDS011;48031;48.542;13.232;2023-04-24T11:31:44;1.60;;;1.50;;
62071;SDS011;48031;48.542;13.232;2023-04-24T11:35:53;1.50;;;1.40;;
62071;SDS011;48031;48.542;13.232;2023-04-24T11:39:55;1.40;;;1.30;;
62071;SDS011;48031;48.542;13.232;2023-04-24T11:44:00;1.30;;;1.20;;
62071;SDS011;48031;48.542;13.232;2023-04-24T11:48:02;1.42;;;1.20;;
62071;SDS011;48031;48.542;13.232;2023-04-24T11:52:05;2.58;;;1.42;;
62071;SDS011;48031;48.542;13.232;2023-04-24T11:56:08;3.38;;;1.27;;
62071;SDS011;48031;48.542;13.232;2023-04-24T12:00:21;1.23;;;1.13;;
62071;SDS011;48031;48.542;13.232;2023-04-24T12:04:24;1.50;;;1.40;;
62071;SDS011;48031;48.542;13.232;2023-04-24T12:08:27;2.05;;;1.95;;
62071;SDS011;48031;48.542;13.232;2023-04-24T12:12:30;2.03;;;1.67;;
62071;SDS011;48031;48.542;13.232;2023-04-24T12:16:32;1.25;;;1.15;;
62071;SDS011;48031;48.542;13.232;2023-04-24T12:20:35;3.03;;;1.77;;
62071;SDS011;48031;48.542;13.232;2023-04-24T12:24:54;1.83;;;1.70;;
62071;SDS011;48031;48.542;13.232;2023-04-24T12:29:01;1.40;;;1.30;;
62071;SDS011;48031;48.542;13.232;2023-04-24T12:33:04;1.38;;;1.25;;
62071;SDS011;48031;48.542;13.232;2023-04-24T12:37:12;1.30;;;1.20;;
62071;SDS011;48031;48.542;13.232;2023-04-24T12:41:14;1.35;;;1.25;;
62071;SDS011;48031;48.542;13.232;2023-04-24T12:45:19;1.63;;;1.40;;
62071;SDS011;48031;48.542;13.232;2023-04-24T12:49:21;1.50;;;1.30;;
62071;SDS011;48031;48.542;13.232;2023-04-24T12:53:23;1.67;;;1.40;;
62071;SDS011;48031;48.542;13.232;2023-04-24T12:57:28;1.40;;;1.20;;
62071;SDS011;48031;48.542;13.232;2023-04-24T13:01:31;1.90;;;1.33;;
62071;SDS011;48031;48.542;13.232;2023-04-24T13:05:32;1.13;;;1.02;;
62071;SDS011;48031;48.542;13.232;2023-04-24T13:09:34;1.38;;;1.27;;
62071;SDS011;48031;48.542;13.232;2023-04-24T13:13:37;1.35;;;1.25;;
62071;SDS011;48031;48.542;13.232;2023-04-24T13:17:38;2.35;;;1.52;;
62071;SDS011;48031;48.542;13.232;2023-04-24T13:21:40;1.58;;;1.27;;
62071;SDS011;48031;48.542;13.232;2023-04-24T13:25:42;1.25;;;1.00;;
62071;SDS011;48031;48.542;13.232;2023-04-24T13:29:44;1.25;;;1.15;;
62071;SDS011;48031;48.542;13.232;2023-04-24T13:33:46;2.60;;;1.10;;
62071;SDS011;48031;48.542;13.232;2023-04-24T13:37:47;0.90;;;0.90;;
62071;SDS011;48031;48.542;13.232;2023-04-24T13:41:49;2.00;;;1.20;;
62071;SDS011;48031;48.542;13.232;2023-04-24T13:45:51;1.20;;;1.10;;
62071;SDS011;48031;48.542;13.232;2023-04-24T13:49:53;1.35;;;1.10;;
62071;SDS011;48031;48.542;13.232;2023-04-24T13:53:55;1.35;;;1.08;;
62071;SDS011;48031;48.542;13.232;2023-04-24T13:57:57;0.98;;;0.98;;
62071;SDS011;48031;48.542;13.232;2023-04-24T14:01:59;0.90;;;0.90;;
62071;SDS011;48031;48.542;13.232;2023-04-24T14:06:00;1.15;;;1.05;;
62071;SDS011;48031;48.542;13.232;2023-04-24T14:10:02;1.20;;;1.10;;
62071;SDS011;48031;48.542;13.232;2023-04-24T14:14:04;1.00;;;1.00;;
62071;SDS011;48031;48.542;13.232;2023-04-24T14:18:06;1.20;;;1.10;;
62071;SDS011;48031;48.542;13.232;2023-04-24T14:22:09;1.10;;;1.00;;
62071;SDS011;48031;48.542;13.232;2023-04-24T14:26:11;1.77;;;1.05;;
62071;SDS011;48031;48.542;13.232;2023-04-24T14:30:13;1.13;;;1.10;;
62071;SDS011;48031;48.542;13.232;2023-04-24T14:34:16;1.30;;;1.20;;
62071;SDS011;48031;48.542;13.232;2023-04-24T14:38:18;1.52;;;1.30;;
62071;SDS011;48031;48.542;13.232;2023-04-24T14:42:20;1.50;;;1.10;;
62071;SDS011;48031;48.542;13.232;2023-04-24T14:46:22;1.30;;;1.20;;
62071;SDS011;48031;48.542;13.232;2023-04-24T14:50:23;1.60;;;1.50;;
62071;SDS011;48031;48.542;13.232;2023-04-24T14:54:29;1.55;;;1.10;;
62071;SDS011;48031;48.542;13.232;2023-04-24T14:58:32;1.40;;;1.30;;
62071;SDS011;48031;48.542;13.232;2023-04-24T15:02:34;1.55;;;1.20;;
62071;SDS011;48031;48.542;13.232;2023-04-24T15:06:38;1.13;;;1.02;;
62071;SDS011;48031;48.542;13.232;2023-04-24T15:10:40;1.30;;;1.20;;
62071;SDS011;48031;48.542;13.232;2023-04-24T15:14:42;2.03;;;1.40;;
62071;SDS011;48031;48.542;13.232;2023-04-24T15:18:43;1.58;;;1.45;;
62071;SDS011;48031;48.542;13.232;2023-04-24T15:22:45;1.50;;;1.40;;
62071;SDS011;48031;48.542;13.232;2023-04-24T15:26:47;2.78;;;1.40;;
62071;SDS011;48031;48.542;13.232;2023-04-24T15:30:49;1.58;;;1.48;;
62071;SDS011;48031;48.542;13.232;2023-04-24T15:34:52;1.70;;;1.60;;
62071;SDS011;48031;48.542;13.232;2023-04-24T15:39:07;1.80;;;1.60;;
62071;SDS011;48031;48.542;13.232;2023-04-24T15:43:10;1.42;;;1.33;;
62071;SDS011;48031;48.542;13.232;2023-04-24T15:47:12;1.48;;;1.38;;
62071;SDS011;48031;48.542;13.232;2023-04-24T15:51:15;1.60;;;1.50;;
62071;SDS011;48031;48.542;13.232;2023-04-24T15:55:17;1.52;;;1.40;;
62071;SDS011;48031;48.542;13.232;2023-04-24T15:59:18;1.83;;;1.65;;
62071;SDS011;48031;48.542;13.232;2023-04-24T16:03:20;1.42;;;1.30;;
62071;SDS011;48031;48.542;13.232;2023-04-24T16:07:23;2.80;;;1.20;;
62071;SDS011;48031;48.542;13.232;2023-04-24T16:11:25;1.58;;;1.48;;
62071;SDS011;48031;48.542;13.232;2023-04-24T16:15:26;1.52;;;1.30;;
62071;SDS011;48031;48.542;13.232;2023-04-24T16:19:28;1.88;;;1.52;;
62071;SDS011;48031;48.542;13.232;2023-04-24T16:23:30;1.40;;;1.30;;
62071;SDS011;48031;48.542;13.232;2023-04-24T16:27:32;1.40;;;1.30;;
62071;SDS011;48031;48.542;13.232;2023-04-24T16:31:34;1.25;;;1.15;;
62071;SDS011;48031;48.542;13.232;2023-04-24T16:35:36;1.23;;;1.10;;
62071;SDS011;48031;48.542;13.232;2023-04-24T16:39:38;1.30;;;1.20;;
62071;SDS011;48031;48.542;13.232;2023-04-24T16:43:44;1.60;;;1.50;;
62071;SDS011;48031;48.542;13.232;2023-04-24T16:47:46;1.40;;;1.30;;
62071;SDS011;48031;48.542;13.232;2023-04-24T16:51:48;1.42;;;1.20;;
62071;SDS011;48031;48.542;13.232;2023-04-24T16:55:50;1.98;;;1.45;;
62071;SDS011;48031;48.542;13.232;2023-04-24T16:59:52;1.60;;;1.50;;
62071;SDS011;48031;48.542;13.232;2023-04-24T17:03:54;1.92;;;1.42;;
62071;SDS011;48031;48.542;13.232;2023-04-24T17:07:56;1.40;;;1.30;;
62071;SDS011;48031;48.542;13.232;2023-04-24T17:11:58;1.75;;;1.23;;
62071;SDS011;48031;48.542;13.232;2023-04-24T17:16:00;1.30;;;1.20;;
62071;SDS011;48031;48.542;13.232;2023-04-24T17:20:01;1.50;;;1.40;;
62071;SDS011;48031;48.542;13.232;2023-04-24T17:24:22;1.67;;;1.55;;
62071;SDS011;48031;48.542;13.232;2023-04-24T17:28:25;2.42;;;1.20;;
62071;SDS011;48031;48.542;13.232;2023-04-24T17:32:28;2.75;;;1.30;;
62071;SDS011;48031;48.542;13.232;2023-04-24T17:36:30;1.75;;;1.10;;
62071;SDS011;48031;48.542;13.232;2023-04-24T17:40:32;2.40;;;1.40;;
62071;SDS011;48031;48.542;13.232;2023-04-24T17:44:34;1.73;;;1.30;;
62071;SDS011;48031;48.542;13.232;2023-04-24T17:48:36;3.17;;;1.30;;
62071;SDS011;48031;48.542;13.232;2023-04-24T17:52:39;1.23;;;1.02;;
62071;SDS011;48031;48.542;13.232;2023-04-24T17:56:41;2.42;;;1.10;;
62071;SDS011;48031;48.542;13.232;2023-04-24T18:00:43;1.30;;;1.20;;
62071;SDS011;48031;48.542;13.232;2023-04-24T18:04:44;4.47;;;1.30;;
62071;SDS011;48031;48.542;13.232;2023-04-24T18:08:47;1.20;;;1.10;;
62071;SDS011;48031;48.542;13.232;2023-04-24T18:12:49;3.08;;;1.30;;
62071;SDS011;48031;48.542;13.232;2023-04-24T18:16:51;1.70;;;1.25;;
62071;SDS011;48031;48.542;13.232;2023-04-24T18:20:52;1.20;;;1.00;;
62071;SDS011;48031;48.542;13.232;2023-04-24T18:24:54;3.22;;;1.20;;
62071;SDS011;48031;48.542;13.232;2023-04-24T18:28:56;1.08;;;1.00;;
62071;SDS011;48031;48.542;13.232;2023-04-24T18:32:58;1.50;;;1.40;;
62071;SDS011;48031;48.542;13.232;2023-04-24T18:37:00;1.60;;;1.45;;
62071;SDS011;48031;48.542;13.232;2023-04-24T18:41:02;2.63;;;1.95;;
62071;SDS011;48031;48.542;13.232;2023-04-24T18:45:04;2.72;;;1.42;;
62071;SDS011;48031;48.542;13.232;2023-04-24T18:49:06;1.52;;;1.42;;
62071;SDS011;48031;48.542;13.232;2023-04-24T18:53:08;1.60;;;1.50;;
62071;SDS011;48031;48.542;13.232;2023-04-24T18:57:13;2.45;;;1.60;;
62071;SDS011;48031;48.542;13.232;2023-04-24T19:01:14;1.50;;;1.40;;
62071;SDS011;48031;48.542;13.232;2023-04-24T19:05:16;1.83;;;1.50;;
62071;SDS011;48031;48.542;13.232;2023-04-24T19:09:18;1.77;;;1.40;;
62071;SDS011;48031;48.542;13.232;2023-04-24T19:13:20;1.65;;;1.55;;
62071;SDS011;48031;48.542;13.232;2023-04-24T19:17:22;2.88;;;1.75;;
62071;SDS011;48031;48.542;13.232;2023-04-24T19:21:26;1.98;;;1.80;;
62071;SDS011;48031;48.542;13.232;2023-04-24T19:25:28;2.53;;;1.55;;
62071;SDS011;48031;48.542;13.232;2023-04-24T19:29:30;3.97;;;1.20;;
62071;SDS011;48031;48.542;13.232;2023-04-24T19:33:31;2.60;;;1.10;;
62071;SDS011;48031;48.542;13.232;2023-04-24T19:37:33;2.55;;;1.50;;
62071;SDS011;48031;48.542;13.232;2023-04-24T19:41:35;1.45;;;1.35;;
62071;SDS011;48031;48.542;13.232;2023-04-24T19:45:39;1.35;;;1.25;;
62071;SDS011;48031;48.542;13.232;2023-04-24T19:49:41;3.22;;;2.08;;
62071;SDS011;48031;48.542;13.232;2023-04-24T19:53:43;1.67;;;1.58;;
62071;SDS011;48031;48.542;13.232;2023-04-24T19:57:46;2.40;;;1.80;;
62071;SDS011;48031;48.542;13.232;2023-04-24T20:01:47;2.50;;;1.90;;
62071;SDS011;48031;48.542;13.232;2023-04-24T20:05:51;2.55;;;1.75;;
62071;SDS011;48031;48.542;13.232;2023-04-24T20:09:53;2.42;;;1.40;;
62071;SDS011;48031;48.542;13.232;2023-04-24T20:13:54;3.00;;;1.90;;
62071;SDS011;48031;48.542;13.232;2023-04-24T20:17:57;2.10;;;1.90;;
62071;SDS011;48031;48.542;13.232;2023-04-24T20:21:59;2.50;;;2.00;;
62071;SDS011;48031;48.542;13.232;2023-04-24T20:26:01;2.15;;;1.92;;
62071;SDS011;48031;48.542;13.232;2023-04-24T20:30:05;3.78;;;1.90;;
62071;SDS011;48031;48.542;13.232;2023-04-24T20:34:13;2.10;;;1.88;;
62071;SDS011;48031;48.542;13.232;2023-04-24T20:38:14;3.58;;;2.17;;
62071;SDS011;48031;48.542;13.232;2023-04-24T20:42:18;1.83;;;1.70;;
62071;SDS011;48031;48.542;13.232;2023-04-24T20:46:20;2.28;;;1.48;;
62071;SDS011;48031;48.542;13.232;2023-04-24T20:50:22;1.60;;;1.50;;
62071;SDS011;48031;48.542;13.232;2023-04-24T20:54:25;3.83;;;1.85;;
62071;SDS011;48031;48.542;13.232;2023-04-24T20:58:27;1.75;;;1.40;;
62071;SDS011;48031;48.542;13.232;2023-04-24T21:02:29;1.30;;;1.20;;
62071;SDS011;48031;48.542;13.232;2023-04-24T21:06:31;1.00;;;0.90;;
62071;SDS011;48031;48.542;13.232;2023-04-24T21:10:33;0.90;;;0.90;;
62071;SDS011;48031;48.542;13.232;2023-04-24T21:14:35;1.30;;;1.20;;
62071;SDS011;48031;48.542;13.232;2023-04-24T21:18:36;1.35;;;1.20;;
62071;SDS011;48031;48.542;13.232;2023-04-24T21:22:41;0.90;;;0.90;;
62071;SDS011;48031;48.542;13.232;2023-04-24T21:26:43;1.30;;;1.20;;
62071;SDS011;48031;48.542;13.232;2023-04-24T21:30:46;2.20;;;1.88;;
62071;SDS011;48031;48.542;13.232;2023-04-24T21:34:48;1.83;;;1.65;;
62071;SDS011;48031;48.542;13.232;2023-04-24T21:38:50;1.98;;;1.70;;
62071;SDS011;48031;48.542;13.232;2023-04-24T21:42:52;1.30;;;1.20;;
62071;SDS011;48031;48.542;13.232;2023-04-24T21:46:53;1.40;;;1.30;;
62071;SDS011;48031;48.542;13.232;2023-04-24T21:50:55;0.85;;;0.85;;
62071;SDS011;48031;48.542;13.232;2023-04-24T21:54:57;1.00;;;1.00;;
62071;SDS011;48031;48.542;13.232;2023-04-24T21:58:59;0.90;;;0.90;;
62071;SDS011;48031;48.542;13.232;2023-04-24T22:03:01;0.90;;;0.90;;
62071;SDS011;48031;48.542;13.232;2023-04-24T22:07:05;0.93;;;0.93;;
62071;SDS011;48031;48.542;13.232;2023-04-24T22:11:07;1.17;;;1.13;;
62071;SDS011;48031;48.542;13.232;2023-04-24T22:15:26;1.27;;;1.17;;
62071;SDS011;48031;48.542;13.232;2023-04-24T22:19:28;1.00;;;1.00;;
62071;SDS011;48031;48.542;13.232;2023-04-24T22:23:30;1.55;;;1.10;;
62071;SDS011;48031;48.542;13.232;2023-04-24T22:27:32;0.90;;;0.90;;
62071;SDS011;48031;48.542;13.232;2023-04-24T22:31:36;1.20;;;1.10;;
62071;SDS011;48031;48.542;13.232;2023-04-24T22:35:38;0.80;;;0.80;;
62071;SDS011;48031;48.542;13.232;2023-04-24T22:39:39;0.80;;;0.73;;
62071;SDS011;48031;48.542;13.232;2023-04-24T22:43:41;0.90;;;0.90;;
62071;SDS011;48031;48.542;13.232;2023-04-24T22:47:43;0.90;;;0.90;;
62071;SDS011;48031;48.542;13.232;2023-04-24T22:51:45;0.80;;;0.80;;
62071;SDS011;48031;48.542;13.232;2023-04-24T22:55:48;0.90;;;0.90;;
62071;SDS011;48031;48.542;13.232;2023-04-24T22:59:50;0.98;;;0.90;;
62071;SDS011;48031;48.542;13.232;2023-04-24T23:03:54;1.58;;;1.10;;
62071;SDS011;48031;48.542;13.232;2023-04-24T23:07:56;0.95;;;0.95;;
62071;SDS011;48031;48.542;13.232;2023-04-24T23:11:57;0.80;;;0.80;;
62071;SDS011;48031;48.542;13.232;2023-04-24T23:15:59;0.73;;;0.73;;
62071;SDS011;48031;48.542;13.232;2023-04-24T23:20:01;1.45;;;1.27;;
62071;SDS011;48031;48.542;13.232;2023-04-24T23:24:05;1.02;;;0.90;;
62071;SDS011;48031;48.542;13.232;2023-04-24T23:28:06;1.10;;;1.00;;
62071;SDS011;48031;48.542;13.232;2023-04-24T23:32:08;0.80;;;0.80;;
62071;SDS011;48031;48.542;13.232;2023-04-24T23:36:10;0.82;;;0.82;;
62071;SDS011;48031;48.542;13.232;2023-04-24T23:40:12;0.80;;;0.80;;
62071;SDS011;48031;48.542;13.232;2023-04-24T23:44:14;0.70;;;0.70;;
62071;SDS011;48031;48.542;13.232;2023-04-24T23:48:16;0.95;;;0.95;;
62071;SDS011;48031;48.542;13.232;2023-04-24T23:52:17;0.80;;;0.80;;
62071;SDS011;48031;48.542;13.232;2023-04-24T23:56:19;0.70;;;0.70;;
